Immokalee, Florida
Current Conditions -  °F | °C
As of 6:15 PM on Tuesday 21 Oct 2014 (Local Time) from KIMM Reporting Station
Clear Clear  
Wind Chill: 79°   Ceiling: Unl
Heat Index: 83°   Visibility: 7mi
Dew Point: 79°   Wind: 6mph
Humidity: 100%   Direction: 40°NE
Pressure: 29.93"   Gusts: NA
Location:  26.42°N, 81.42°W
Report Text: KIMM 212215Z AUTO 04005KT 7SM CLR 26/26 A2993 RMK A01 P000
Loading
Personal Weather Stations






























Interactive Weather Map New forecast layout! Learn more

10-Day Weather Forecast

Advertisements
Track Severe Weather on mobile